Time;durP1;ratioP1;P1;durP2;ratioP2;P2;SDS_P1;SDS_P2;PMS_P1;PMS_P2;Temp;Humidity;BMP_temperature;BMP_pressure;BME280_temperature;BME280_humidity;BME280_pressure;Samples;Min_cycle;Max_cycle;Signal;HPM_P1;HPM_P2
2022/03/11 00:00:39;;;;;;;;;;;0.80;99.90;;;-0.27;60.85;96013.78;10481831;28;1824;-78
2022/03/11 00:05:42;;;;;;;;;;;0.90;99.90;;;-0.30;60.85;96020.28;10505769;28;1784;-79
2022/03/11 00:10:47;;;;;;;;;;;0.90;99.90;;;-0.39;60.08;96008.25;10512896;28;1914;-79
2022/03/11 00:15:51;;;;;;;;;;;0.40;99.90;;;-0.44;57.95;96015.19;10492086;28;2172;-79
2022/03/11 00:20:54;;;;;;;;;;;0.70;99.90;;;-0.55;58.55;96008.63;10506679;28;2025;-78
2022/03/11 00:25:58;;;;;;;;;;;0.50;99.90;;;-0.63;57.29;96014.91;10507906;28;1870;-79
2022/03/11 00:31:01;;;;;;;;;;;0.30;99.90;;;-0.72;55.85;96021.38;10507533;28;1979;-79
2022/03/11 00:36:06;;;;;;;;;;;0.30;99.90;;;-0.75;55.77;96015.69;10502144;28;1869;-79
2022/03/11 00:41:16;;;;;;;;;;;0.20;99.90;;;-0.87;55.62;96013.59;10481614;28;1883;-77
2022/03/11 00:46:19;;;;;;;;;;;0.30;99.90;;;-0.92;54.78;96004.63;10476599;28;1862;-78
2022/03/11 00:51:22;;;;;;;;;;;0.10;99.90;;;-0.97;54.41;96007.03;10502242;28;1899;-77
2022/03/11 00:56:27;;;;;;;;;;;0.10;99.90;;;-1.05;53.67;96004.56;10478590;28;1800;-78
2022/03/11 01:01:30;;;;;;;;;;;-0.10;99.90;;;-1.12;53.24;96004.53;10485984;28;1817;-78
2022/03/11 01:06:34;;;;;;;;;;;-0.10;99.90;;;-1.16;52.31;95998.81;10503656;28;1840;-78
2022/03/11 01:11:37;;;;;;;;;;;-0.60;99.90;;;-1.22;52.35;95994.31;10503790;28;1989;-77
2022/03/11 01:16:41;;;;;;;;;;;-0.10;99.90;;;-1.29;52.56;95990.84;10508604;28;1818;-79
2022/03/11 01:21:44;;;;;;;;;;;-1.30;99.90;;;-1.32;51.65;95983.31;10545104;22;2349;-69
2022/03/11 01:26:48;;;;;;;;;;;;;;;-1.36;51.13;95976.81;10538354;28;2195;-69
2022/03/11 01:31:51;;;;;;;;;;;;;;;-1.44;50.62;95976.97;10545139;28;1973;-69
2022/03/11 01:36:55;;;;;;;;;;;;;;;-1.55;50.78;95977.50;10531079;28;1919;-68
2022/03/11 01:41:58;;;;;;;;;;;;;;;-1.56;50.50;95970.59;10540473;28;1966;-68
2022/03/11 01:47:02;;;;;;;;;;;;;;;-1.60;49.62;95969.34;10540212;28;2356;-69
2022/03/11 01:52:05;;;;;;;;;;;;;;;-1.68;50.32;95957.94;10544631;28;2226;-69
2022/03/11 01:57:09;;;;;;;;;;;;;;;-1.73;49.91;95959.53;10546211;28;2327;-69
2022/03/11 02:02:12;;;;;;;;;;;;;;;-1.86;51.25;95949.69;10536172;28;2484;-69
2022/03/11 02:07:16;;;;;;;;;;;;;;;-1.85;50.69;95947.88;10531337;28;1963;-69
2022/03/11 02:12:20;;;;;;;;;;;;;;;-1.88;50.27;95951.72;10560977;28;1983;-68
2022/03/11 02:17:24;;;;;;;;;;;;;;;-1.91;49.71;95946.81;10529206;28;1927;-69
2022/03/11 02:22:28;;;;;;;;;;;;;;;-1.98;50.59;95951.22;10531681;28;1935;-70
2022/03/11 02:27:47;;;;;;;;;;;;;;;-2.04;50.03;95950.16;10545833;28;1980;-70
2022/03/11 02:32:54;;;;;;;;;;;;;;;-2.10;50.61;95958.00;10544068;28;1965;-69
2022/03/11 02:37:58;;;;;;;;;;;;;;;-2.15;50.64;95955.16;10541466;28;1970;-68
2022/03/11 02:43:01;;;;;;;;;;;;;;;-2.19;51.75;95949.44;10547850;28;2034;-68
2022/03/11 02:48:05;;;;;;;;;;;;;;;-2.20;51.05;95951.25;10552197;28;1958;-69
2022/03/11 02:53:08;;;;;;;;;;;;;;;-2.27;51.86;95945.13;10508646;28;2342;-69
2022/03/11 02:58:11;;;;;;;;;;;;;;;-2.32;51.21;95939.59;10518982;28;1950;-70
2022/03/11 03:03:15;;;;;;;;;;;;;;;-2.34;52.11;95940.81;10544280;28;1907;-68
2022/03/11 03:08:19;;;;;;;;;;;;;;;-2.35;52.35;95940.00;10551211;28;2052;-69
2022/03/11 03:13:22;;;;;;;;;;;;;;;-2.37;51.76;95941.19;10549160;28;2036;-67
2022/03/11 03:18:26;;;;;;;;;;;;;;;-2.46;52.94;95937.88;10536252;28;1847;-69
2022/03/11 03:23:29;;;;;;;;;;;;;;;-2.44;52.70;95938.47;10534317;28;1962;-68
2022/03/11 03:28:33;;;;;;;;;;;;;;;-2.49;53.25;95935.59;10532166;28;1977;-67
2022/03/11 03:33:37;;;;;;;;;;;;;;;-2.52;53.04;95936.78;10536640;28;1937;-69
2022/03/11 03:38:40;;;;;;;;;;;;;;;-2.55;53.93;95933.72;10542619;28;1934;-69
2022/03/11 03:43:44;;;;;;;;;;;;;;;-2.62;54.57;95928.38;10544936;28;1973;-68
2022/03/11 03:48:47;;;;;;;;;;;;;;;-2.67;55.65;95920.25;10521885;28;2021;-69
2022/03/11 03:53:51;;;;;;;;;;;;;;;-2.72;55.14;95918.19;10530572;28;1979;-68
2022/03/11 03:58:54;;;;;;;;;;;;;;;-2.77;55.16;95915.28;10544846;28;1848;-67
2022/03/11 04:04:02;;;;;;;;;;;;;;;-2.80;56.03;95917.47;10544006;28;1894;-68
2022/03/11 04:09:06;;;;;;;;;;;;;;;-2.85;57.09;95925.13;10546988;28;2075;-68
2022/03/11 04:14:10;;;;;;;;;;;;;;;-2.87;56.31;95914.78;10545102;28;1942;-69
2022/03/11 04:19:14;;;;;;;;;;;;;;;-2.90;56.71;95919.59;10553646;28;1792;-69
2022/03/11 04:24:18;;;;;;;;;;;;;;;-2.95;57.33;95928.03;10548873;28;1899;-69
2022/03/11 04:29:23;;;;;;;;;;;;;;;-3.00;57.98;95930.41;10525249;28;1955;-68
2022/03/11 04:34:27;;;;;;;;;;;;;;;-3.07;58.25;95929.53;10534901;28;2004;-69
2022/03/11 04:39:30;;;;;;;;;;;;;;;-3.09;58.09;95926.28;10513433;28;1945;-69
2022/03/11 04:44:34;;;;;;;;;;;;;;;-3.12;58.00;95916.09;10530573;28;2002;-67
2022/03/11 04:49:38;;;;;;;;;;;;;;;-3.15;58.10;95924.38;10525984;28;1980;-68
2022/03/11 04:54:41;;;;;;;;;;;;;;;-3.22;58.91;95920.88;10516966;28;1918;-69
2022/03/11 04:59:45;;;;;;;;;;;;;;;-3.26;59.09;95915.94;10529509;28;1923;-69
2022/03/11 05:04:49;;;;;;;;;;;;;;;-3.31;59.84;95907.84;10511964;28;1911;-69
2022/03/11 05:09:53;;;;;;;;;;;;;;;-3.28;59.85;95894.31;10541418;28;2012;-69
2022/03/11 05:14:57;;;;;;;;;;;;;;;-3.27;59.61;95906.44;10532824;28;1973;-68
2022/03/11 05:20:01;;;;;;;;;;;;;;;-3.38;61.09;95906.91;10538565;28;1998;-69
2022/03/11 05:25:04;;;;;;;;;;;;;;;-3.32;60.76;95902.72;10555904;28;1899;-69
2022/03/11 05:30:08;;;;;;;;;;;;;;;-3.37;61.70;95902.47;10548545;28;2048;-68
2022/03/11 05:35:11;;;;;;;;;;;;;;;-3.43;61.13;95893.53;10537670;28;1921;-68
2022/03/11 05:40:15;;;;;;;;;;;;;;;-3.44;61.20;95902.38;10544271;28;1931;-69
2022/03/11 05:45:18;;;;;;;;;;;;;;;-3.42;61.26;95902.22;10535756;28;1950;-70
2022/03/11 05:50:22;;;;;;;;;;;;;;;-3.37;61.63;95898.06;10534822;28;2084;-67
2022/03/11 05:55:26;;;;;;;;;;;;;;;-3.39;61.99;95899.22;10518136;28;1986;-68
2022/03/11 06:00:29;;;;;;;;;;;;;;;-3.30;62.52;95904.19;10514456;28;1874;-69
2022/03/11 06:05:33;;;;;;;;;;;;;;;-3.27;62.16;95916.97;10535690;28;1943;-68
2022/03/11 06:10:37;;;;;;;;;;;;;;;-3.29;62.36;95921.59;10521607;28;2062;-67
2022/03/11 06:15:40;;;;;;;;;;;;;;;-3.20;62.16;95924.13;10523211;28;2083;-70
2022/03/11 06:20:44;;;;;;;;;;;;;;;-3.13;62.36;95925.81;10532550;28;1980;-69
2022/03/11 06:25:48;;;;;;;;;;;;;;;-3.10;62.17;95937.78;10523393;28;1962;-68
2022/03/11 06:30:51;;;;;;;;;;;;;;;-2.96;62.55;95938.75;10521272;28;1713;-69
2022/03/11 06:35:55;;;;;;;;;;;;;;;-2.75;61.97;95939.59;10525758;28;2069;-69
2022/03/11 06:40:59;;;;;;;;;;;;;;;-2.75;61.83;95944.03;10530613;28;1946;-68
2022/03/11 06:46:02;;;;;;;;;;;;;;;-2.56;62.02;95946.06;10519386;28;1923;-69
2022/03/11 06:51:06;;;;;;;;;;;;;;;-2.59;61.97;95948.28;10527069;28;1935;-68
2022/03/11 06:56:09;;;;;;;;;;;;;;;-2.63;61.74;95957.53;10534092;28;1975;-68
2022/03/11 07:01:14;;;;;;;;;;;;;;;-2.63;61.44;95950.44;10516948;28;1975;-68
2022/03/11 07:06:17;;;;;;;;;;;;;;;-2.37;62.19;95954.34;10493003;28;1978;-68
2022/03/11 07:11:22;;;;;;;;;;;;;;;-2.24;61.30;95950.00;10527729;28;1947;-70
2022/03/11 07:16:25;;;;;;;;;;;;;;;-1.99;61.62;95950.41;10527203;28;2063;-70
2022/03/11 07:21:29;;;;;;;;;;;;;;;-2.07;61.53;95968.19;10552390;22;2311;-80
2022/03/11 07:26:32;;;;;;;;;;;;;;;-1.92;61.65;95966.28;10592245;28;1924;-79
2022/03/11 07:31:36;;;;;;;;;;;;;;;-1.80;61.34;95959.47;10574282;28;2210;-79
2022/03/11 07:36:39;;;;;;;;;;;-0.90;99.90;;;-1.50;60.65;95968.00;10543223;28;2025;-83
2022/03/11 07:41:42;;;;;;;;;;;-0.60;99.90;;;-1.58;59.98;95972.63;10541006;28;1896;-76
2022/03/11 07:46:46;;;;;;;;;;;-0.50;99.90;;;-1.41;60.71;95972.09;10523403;28;2380;-74
2022/03/11 07:51:49;;;;;;;;;;;-0.40;99.90;;;-1.15;59.92;95968.78;10503309;28;1934;-74
2022/03/11 07:56:52;;;;;;;;;;;-0.30;99.90;;;-0.84;58.44;95975.41;10508188;28;1978;-72
2022/03/11 08:01:55;;;;;;;;;;;0.00;99.90;;;-0.86;58.57;95969.53;10513179;28;1960;-72
2022/03/11 08:07:01;;;;;;;;;;;0.20;99.90;;;-0.57;58.67;95966.59;10536484;28;1820;-73
2022/03/11 08:12:04;;;;;;;;;;;0.20;99.90;;;-0.58;57.69;95959.66;10521227;28;1910;-75
2022/03/11 08:17:07;;;;;;;;;;;0.40;99.90;;;-0.43;58.33;95962.16;10503308;28;1883;-74
2022/03/11 08:22:12;;;;;;;;;;;0.50;99.90;;;-0.22;57.28;95955.88;10526524;28;1793;-74
2022/03/11 08:27:17;;;;;;;;;;;0.70;99.90;;;-0.06;57.19;95952.88;10531309;28;1854;-74
2022/03/11 08:32:20;;;;;;;;;;;0.80;99.90;;;0.24;55.92;95952.44;10519645;28;1986;-74
2022/03/11 08:37:23;;;;;;;;;;;1.10;99.70;;;0.35;56.07;95951.81;10527914;28;1821;-74
2022/03/11 08:42:26;;;;;;;;;;;1.30;99.40;;;0.71;55.49;95947.91;10510583;28;1928;-74
2022/03/11 08:47:30;;;;;;;;;;;1.50;99.50;;;1.23;54.24;95927.56;10512492;28;2354;-73
2022/03/11 08:52:34;;;;;;;;;;;2.00;99.10;;;1.21;53.76;95932.22;10521057;28;2256;-73
2022/03/11 08:57:37;;;;;;;;;;;2.20;97.70;;;1.07;53.70;95920.91;10520862;28;2019;-74
2022/03/11 09:02:40;;;;;;;;;;;2.20;97.20;;;1.46;53.73;95921.72;10528331;28;1813;-73
2022/03/11 09:07:43;;;;;;;;;;;2.30;97.80;;;1.85;52.16;95913.53;10532582;28;1841;-73
2022/03/11 09:12:47;;;;;;;;;;;2.60;99.90;;;1.94;51.52;95922.03;10535088;28;1988;-74
2022/03/11 09:17:50;;;;;;;;;;;2.80;99.90;;;2.10;51.38;95910.88;10536942;28;1939;-73
2022/03/11 09:22:54;;;;;;;;;;;2.80;99.00;;;2.12;50.99;95911.47;10531238;28;1906;-74
2022/03/11 09:27:58;;;;;;;;;;;3.00;98.00;;;2.52;50.02;95902.31;10516638;28;1882;-76
2022/03/11 09:33:02;;;;;;;;;;;3.20;95.00;;;2.40;49.91;95900.38;10530859;28;1917;-74
2022/03/11 09:38:04;;;;;;;;;;;3.40;94.30;;;2.66;49.00;95904.63;10530372;28;1814;-74
2022/03/11 09:43:08;;;;;;;;;;;3.40;93.90;;;3.14;48.66;95895.91;10515236;28;1853;-74
2022/03/11 09:48:11;;;;;;;;;;;3.70;93.90;;;3.25;47.19;95905.78;10515889;28;2416;-74
2022/03/11 09:53:17;;;;;;;;;;;4.10;92.70;;;3.56;46.98;95895.13;10507004;28;1988;-74
2022/03/11 09:58:20;;;;;;;;;;;4.30;92.50;;;3.86;46.41;95903.09;10512851;28;1799;-74
2022/03/11 10:03:25;;;;;;;;;;;;;;;4.01;46.79;95898.16;10532369;28;1771;-74
2022/03/11 10:08:29;;;;;;;;;;;;;;;3.95;46.48;95902.53;10508902;28;2043;-73
2022/03/11 10:13:32;;;;;;;;;;;4.80;99.90;;;4.05;46.41;95891.31;10527769;28;2034;-73
2022/03/11 10:18:35;;;;;;;;;;;4.90;96.30;;;4.12;46.14;95891.22;10509791;28;1814;-74
2022/03/11 10:23:40;;;;;;;;;;;5.00;91.40;;;4.03;46.44;95888.09;10505550;28;1776;-72
2022/03/11 10:28:45;;;;;;;;;;;4.80;91.60;;;4.16;45.93;95884.41;10503854;28;2253;-72
2022/03/11 10:33:48;;;;;;;;;;;4.70;91.40;;;4.48;44.58;95890.19;10519015;28;1910;-73
2022/03/11 10:38:51;;;;;;;;;;;5.20;99.90;;;4.40;45.02;95887.88;10505751;28;2199;-73
2022/03/11 10:43:55;;;;;;;;;;;;;;;4.83;44.41;95885.63;10525497;28;1895;-75
2022/03/11 10:48:59;;;;;;;;;;;;;;;4.68;44.33;95874.66;10503694;28;2299;-74
2022/03/11 10:54:02;;;;;;;;;;;;;;;4.98;43.85;95879.81;10509831;28;1984;-73
2022/03/11 10:59:05;;;;;;;;;;;5.70;99.90;;;5.01;43.90;95883.84;10526443;28;1821;-74
2022/03/11 11:04:08;;;;;;;;;;;5.90;91.90;;;5.09;43.93;95875.50;10519136;28;1883;-73
2022/03/11 11:09:11;;;;;;;;;;;6.10;99.90;;;5.12;43.00;95875.03;10506171;28;1863;-74
2022/03/11 11:14:14;;;;;;;;;;;6.00;99.90;;;5.41;42.61;95868.69;10525318;28;1932;-73
2022/03/11 11:19:17;;;;;;;;;;;6.20;96.50;;;5.56;42.36;95860.13;10509793;28;2029;-75
2022/03/11 11:24:20;;;;;;;;;;;6.30;98.90;;;5.37;41.88;95851.53;10509295;28;1798;-74
2022/03/11 11:29:23;;;;;;;;;;;6.40;93.00;;;5.72;41.93;95842.53;10516493;28;1796;-75
2022/03/11 11:34:27;;;;;;;;;;;6.40;93.60;;;5.70;41.43;95841.97;10548158;28;1890;-74
2022/03/11 11:39:29;;;;;;;;;;;6.60;99.90;;;5.73;41.00;95833.50;10521930;28;1935;-74
2022/03/11 11:44:33;;;;;;;;;;;6.60;98.00;;;6.01;40.98;95829.16;10525563;28;1810;-74
2022/03/11 11:49:37;;;;;;;;;;;6.70;99.90;;;6.13;40.68;95825.34;10556959;28;1932;-76
2022/03/11 11:54:42;;;;;;;;;;;;;;;6.00;40.41;95816.88;10532668;28;2217;-75
2022/03/11 11:59:46;;;;;;;;;;;;;;;6.42;40.09;95817.22;10545874;28;1873;-75
2022/03/11 12:04:50;;;;;;;;;;;;;;;6.36;39.80;95810.19;10552934;28;1876;-73
2022/03/11 12:09:54;;;;;;;;;;;;;;;6.35;39.36;95809.38;10561262;28;1861;-75
2022/03/11 12:14:58;;;;;;;;;;;;;;;6.46;38.95;95805.81;10531390;28;1902;-75
2022/03/11 12:20:03;;;;;;;;;;;;;;;6.47;39.44;95795.94;10554799;28;1870;-74
2022/03/11 12:25:07;;;;;;;;;;;;;;;6.57;38.76;95805.94;10557528;28;1824;-76
2022/03/11 12:30:11;;;;;;;;;;;;;;;6.69;38.58;95787.94;10527283;28;1836;-76
2022/03/11 12:35:14;;;;;;;;;;;7.40;99.90;;;6.91;38.66;95778.03;10539280;28;1993;-76
2022/03/11 12:40:23;;;;;;;;;;;7.60;99.80;;;6.80;38.29;95765.63;10551703;28;1859;-76
2022/03/11 12:45:26;;;;;;;;;;;7.70;88.10;;;6.97;38.37;95753.00;10527004;28;1915;-76
2022/03/11 12:50:29;;;;;;;;;;;7.80;87.70;;;7.05;38.45;95751.72;10520981;28;1838;-76
2022/03/11 12:55:33;;;;;;;;;;;8.00;82.80;;;7.22;38.32;95751.63;10543880;28;1953;-76
2022/03/11 13:00:37;;;;;;;;;;;8.00;83.30;;;7.16;38.42;95749.97;10530000;28;1884;-76
2022/03/11 13:05:41;;;;;;;;;;;8.10;82.80;;;7.29;37.59;95752.25;10519994;28;1801;-74
2022/03/11 13:10:44;;;;;;;;;;;8.10;82.80;;;7.36;38.30;95739.47;10528191;28;2263;-74
2022/03/11 13:15:47;;;;;;;;;;;8.10;83.10;;;7.50;38.25;95746.00;10511888;28;1978;-74
2022/03/11 13:20:50;;;;;;;;;;;8.30;89.60;;;7.45;37.46;95740.63;10508106;28;1997;-73
2022/03/11 13:25:53;;;;;;;;;;;8.30;85.50;;;7.39;37.07;95733.63;10525962;28;1795;-76
2022/03/11 13:31:03;;;;;;;;;;;8.30;83.10;;;7.51;38.20;95742.28;10515612;28;1848;-74
2022/03/11 13:36:06;;;;;;;;;;;8.40;88.90;;;7.35;38.46;95727.16;10503273;28;2608;-75
2022/03/11 13:41:09;;;;;;;;;;;8.30;83.80;;;7.43;38.29;95717.84;10504819;28;1877;-74
2022/03/11 13:46:13;;;;;;;;;;;8.20;83.10;;;7.41;38.86;95717.31;10530035;28;2046;-73
2022/03/11 13:51:16;;;;;;;;;;;8.30;84.50;;;7.46;38.04;95702.13;10512600;28;1884;-74
2022/03/11 13:56:19;;;;;;;;;;;8.40;83.90;;;7.65;37.44;95715.13;10507088;28;1910;-74
2022/03/11 14:01:23;;;;;;;;;;;8.40;83.00;;;7.54;37.47;95731.06;10525911;28;1899;-74
2022/03/11 14:06:26;;;;;;;;;;;8.50;83.10;;;7.48;37.63;95725.94;10507244;28;1847;-73
2022/03/11 14:11:34;;;;;;;;;;;8.40;81.90;;;7.41;36.37;95718.13;10525202;28;1746;-74
2022/03/11 14:16:37;;;;;;;;;;;8.40;80.90;;;7.39;36.93;95714.09;10520142;28;1978;-80
2022/03/11 14:21:40;;;;;;;;;;;8.40;80.80;;;7.56;36.56;95717.44;10525746;28;2057;-78
2022/03/11 14:26:43;;;;;;;;;;;8.40;80.90;;;7.56;36.01;95712.09;10551048;28;1910;-79
2022/03/11 14:31:46;;;;;;;;;;;8.50;80.40;;;7.53;35.78;95709.94;10532438;28;2004;-83
2022/03/11 14:36:50;;;;;;;;;;;8.50;80.20;;;7.47;36.53;95709.09;10532195;28;1983;-79
2022/03/11 14:47:19;;;;;;;;;;;8.60;79.30;;;7.32;36.15;95692.91;10541586;28;1885;-84
2022/03/11 14:52:31;;;;;;;;;;;8.30;79.70;;;7.27;35.91;95703.56;10562245;28;1876;-83
2022/03/11 14:57:38;;;;;;;;;;;8.40;79.50;;;7.25;36.88;95684.28;10559360;28;1988;-82
2022/03/11 15:02:41;;;;;;;;;;;8.20;80.00;;;7.27;36.89;95682.19;10567833;28;1817;-83
2022/03/11 15:07:45;;;;;;;;;;;8.20;80.30;;;7.19;37.33;95674.59;10567095;28;1909;-83
2022/03/11 15:12:52;;;;;;;;;;;8.20;80.40;;;7.17;36.44;95677.53;10542587;28;1866;-85
2022/03/11 15:17:55;;;;;;;;;;;8.20;80.20;;;7.18;37.31;95670.31;10530226;28;1894;-83
2022/03/11 15:22:58;;;;;;;;;;;8.20;80.80;;;7.19;37.11;95663.91;10530053;28;1736;-82
2022/03/11 15:28:01;;;;;;;;;;;8.10;81.00;;;7.18;37.81;95663.09;10533375;28;1829;-82
2022/03/11 15:33:05;;;;;;;;;;;8.20;81.10;;;7.13;37.64;95656.94;10553975;28;1873;-82
2022/03/11 15:38:21;;;;;;;;;;;8.30;81.20;;;7.13;37.55;95664.94;10541516;28;1914;-81
2022/03/11 15:43:25;;;;;;;;;;;8.20;81.00;;;7.08;37.96;95659.56;10546965;28;1893;-83
2022/03/11 15:48:29;;;;;;;;;;;8.10;81.20;;;6.91;38.52;95663.13;10562011;28;1592;-82
2022/03/11 15:53:35;;;;;;;;;;;7.90;81.70;;;6.91;38.64;95662.34;10559380;28;1771;-83
2022/03/11 15:58:41;;;;;;;;;;;7.90;82.00;;;6.84;39.20;95651.03;10579992;28;1933;-81
2022/03/11 16:03:45;;;;;;;;;;;7.90;82.10;;;6.77;39.02;95656.59;10536142;28;1755;-81
2022/03/11 16:08:48;;;;;;;;;;;7.80;82.10;;;6.67;38.83;95651.94;10533997;28;1792;-84
2022/03/11 16:13:52;;;;;;;;;;;7.70;82.00;;;6.58;39.28;95653.47;10554633;28;1895;-78
2022/03/11 16:18:54;;;;;;;;;;;7.60;82.40;;;6.46;39.87;95650.94;10551710;28;1947;-81
2022/03/11 16:23:57;;;;;;;;;;;7.60;82.80;;;6.43;39.56;95662.13;10522096;28;1944;-82
2022/03/11 16:29:01;;;;;;;;;;;7.40;82.70;;;6.31;40.01;95661.44;10518512;28;1861;-80
2022/03/11 16:34:05;;;;;;;;;;;7.30;83.10;;;6.18;40.23;95659.97;10518875;28;1910;-78
2022/03/11 16:39:08;;;;;;;;;;;7.20;83.10;;;6.03;40.48;95656.28;10526008;28;1900;-78
2022/03/11 16:44:12;;;;;;;;;;;7.10;83.40;;;5.88;40.84;95662.19;10523492;28;2011;-81
2022/03/11 16:49:15;;;;;;;;;;;7.00;83.70;;;5.80;41.00;95651.97;10544656;28;2057;-83
2022/03/11 16:54:18;;;;;;;;;;;6.90;83.90;;;5.64;41.42;95665.06;10560541;28;1973;-80
2022/03/11 16:59:22;;;;;;;;;;;6.70;84.30;;;5.49;42.21;95680.03;10550979;28;1854;-82
2022/03/11 17:04:25;;;;;;;;;;;6.60;84.60;;;5.34;42.33;95681.44;10570872;28;1842;-84
2022/03/11 17:09:27;;;;;;;;;;;6.50;84.90;;;5.20;42.37;95684.63;10581106;28;1839;-83
2022/03/11 17:14:31;;;;;;;;;;;6.30;84.80;;;5.01;42.98;95682.19;10566913;28;1933;-82
2022/03/11 17:19:34;;;;;;;;;;;6.10;85.00;;;4.89;42.53;95690.25;10571662;27;1820;-83
2022/03/11 17:24:38;;;;;;;;;;;6.20;85.00;;;4.78;43.14;95688.47;10545143;28;1740;-84
2022/03/11 17:29:41;;;;;;;;;;;5.90;85.30;;;4.67;42.75;95686.66;10543536;28;1699;-83
2022/03/11 17:34:43;;;;;;;;;;;5.80;85.40;;;4.50;42.95;95688.47;10561376;28;1977;-82
2022/03/11 17:39:46;;;;;;;;;;;5.70;85.50;;;4.37;42.56;95692.19;10535483;28;1822;-83
2022/03/11 17:44:49;;;;;;;;;;;5.50;85.00;;;4.26;43.29;95691.22;10549007;28;1736;-83
2022/03/11 17:49:53;;;;;;;;;;;5.40;85.30;;;4.15;43.30;95691.25;10540373;28;1750;-82
2022/03/11 17:54:57;;;;;;;;;;;5.30;85.20;;;4.02;42.71;95695.78;10541531;28;1983;-82
2022/03/11 18:00:00;;;;;;;;;;;5.20;85.00;;;3.91;43.03;95699.25;10556248;28;1779;-80
2022/03/11 18:05:04;;;;;;;;;;;5.00;85.20;;;3.78;43.58;95707.47;10552497;28;2323;-80
2022/03/11 18:10:07;;;;;;;;;;;4.90;85.30;;;3.68;43.22;95705.38;10552546;28;1953;-80
2022/03/11 18:15:11;;;;;;;;;;;4.80;85.20;;;3.66;43.06;95696.84;10567008;28;1956;-80
2022/03/11 18:20:14;;;;;;;;;;;4.80;85.00;;;3.54;43.48;95704.00;10575821;28;1824;-81
2022/03/11 18:25:18;;;;;;;;;;;4.60;84.90;;;3.39;43.89;95706.31;10565360;28;1847;-80
2022/03/11 18:30:22;;;;;;;;;;;4.50;85.30;;;3.32;43.22;95708.28;10578735;28;1831;-79
2022/03/11 18:35:26;;;;;;;;;;;4.40;84.80;;;3.20;42.93;95709.06;10556885;28;1914;-80
2022/03/11 18:40:30;;;;;;;;;;;4.30;84.80;;;3.11;42.78;95709.59;10541691;28;2014;-81
2022/03/11 18:45:33;;;;;;;;;;;4.20;84.50;;;2.98;43.46;95708.78;10549577;28;1993;-81
2022/03/11 18:50:36;;;;;;;;;;;4.10;84.60;;;2.88;42.84;95705.06;10528510;28;1945;-81
2022/03/11 18:55:40;;;;;;;;;;;4.00;84.50;;;2.79;43.65;95706.41;10541262;28;2086;-82
2022/03/11 19:00:44;;;;;;;;;;;3.90;84.60;;;2.68;43.50;95716.78;10524710;28;1927;-82
2022/03/11 19:05:49;;;;;;;;;;;3.70;88.30;;;2.55;43.72;95705.53;10536357;28;1872;-82
2022/03/11 19:10:53;;;;;;;;;;;3.60;84.80;;;2.41;44.04;95708.34;10539263;28;1985;-82
2022/03/11 19:15:56;;;;;;;;;;;3.50;85.20;;;2.35;43.93;95719.84;10524181;28;1966;-83
2022/03/11 19:21:00;;;;;;;;;;;3.30;85.10;;;2.22;43.96;95727.16;10520580;28;2020;-81
2022/03/11 19:26:03;;;;;;;;;;;3.30;85.20;;;2.12;44.01;95728.50;10519479;28;1878;-81
2022/03/11 19:31:06;;;;;;;;;;;3.10;85.10;;;2.06;43.84;95729.38;10529249;28;1913;-81
2022/03/11 19:36:10;;;;;;;;;;;3.00;84.90;;;1.92;44.69;95738.50;10517612;28;1962;-82
2022/03/11 19:41:14;;;;;;;;;;;3.00;85.40;;;1.87;44.38;95746.31;10536551;28;2055;-81
2022/03/11 19:46:17;;;;;;;;;;;2.90;85.30;;;1.78;44.47;95748.44;10518889;28;1970;-81
2022/03/11 19:51:20;;;;;;;;;;;2.80;85.30;;;1.69;44.73;95740.97;10537215;28;1999;-81
2022/03/11 19:56:24;;;;;;;;;;;2.80;85.30;;;1.58;45.02;95748.59;10566023;28;1964;-82
2022/03/11 20:01:27;;;;;;;;;;;2.60;85.50;;;1.49;45.53;95738.50;10558392;28;1934;-81
2022/03/11 20:06:30;;;;;;;;;;;2.60;99.90;;;1.39;45.18;95733.69;10552125;28;1818;-80
2022/03/11 20:11:39;;;;;;;;;;;2.50;86.10;;;1.30;45.67;95751.72;10566521;28;1865;-81
2022/03/11 20:16:44;;;;;;;;;;;2.40;90.40;;;1.21;46.07;95752.19;10555334;28;1914;-81
2022/03/11 20:21:49;;;;;;;;;;;2.20;89.60;;;1.12;46.79;95742.88;10539377;28;1872;-81
2022/03/11 20:26:52;;;;;;;;;;;2.30;97.10;;;1.06;46.38;95747.19;10541644;28;1779;-81
2022/03/11 20:31:57;;;;;;;;;;;;;;;0.96;46.40;95745.03;10539720;28;1805;-81
2022/03/11 20:37:00;;;;;;;;;;;1.80;99.90;;;0.84;47.41;95746.75;10540384;28;1971;-81
2022/03/11 20:42:03;;;;;;;;;;;1.90;90.50;;;0.77;47.08;95756.56;10556595;28;1815;-81
2022/03/11 20:47:07;;;;;;;;;;;1.80;88.70;;;0.67;47.24;95757.00;10551576;28;1770;-80
2022/03/11 20:52:10;;;;;;;;;;;1.80;99.90;;;0.55;47.75;95758.69;10534923;28;1819;-81
2022/03/11 20:57:13;;;;;;;;;;;1.60;99.90;;;0.50;48.06;95754.03;10551708;28;2005;-81
2022/03/11 21:02:17;;;;;;;;;;;1.60;99.90;;;0.43;47.91;95750.59;10535503;28;2130;-82
2022/03/11 21:07:21;;;;;;;;;;;1.50;99.90;;;0.34;48.38;95762.47;10530092;28;1859;-82
2022/03/11 21:12:28;;;;;;;;;;;1.40;99.90;;;0.29;47.91;95764.09;10541183;28;1834;-82
2022/03/11 21:17:32;;;;;;;;;;;1.40;99.90;;;0.16;48.72;95760.50;10524026;28;1993;-82
2022/03/11 21:22:36;;;;;;;;;;;1.20;99.90;;;0.13;48.49;95768.03;10513489;28;1853;-81
2022/03/11 21:27:40;;;;;;;;;;;;;;;0.02;49.43;95776.59;10514233;28;1851;-80
2022/03/11 21:32:44;;;;;;;;;;;;;;;0.05;49.27;95768.25;10537488;28;1898;-82
2022/03/11 21:37:47;;;;;;;;;;;;;;;-0.02;48.59;95771.72;10536595;28;1913;-83
2022/03/11 21:42:58;;;;;;;;;;;;;;;-0.09;48.56;95751.63;10520670;28;1946;-82
2022/03/11 21:48:03;;;;;;;;;;;;;;;-0.16;48.79;95759.56;10522992;28;1809;-83
2022/03/11 21:53:07;;;;;;;;;;;;;;;-0.28;48.91;95759.38;10537440;28;1872;-83
2022/03/11 21:58:11;;;;;;;;;;;;;;;-0.29;49.51;95772.81;10523910;28;1906;-82
2022/03/11 22:03:15;;;;;;;;;;;;;;;-0.35;49.15;95770.97;10522321;28;1984;-81
2022/03/11 22:08:19;;;;;;;;;;;;;;;-0.41;49.95;95774.44;10516148;28;1918;-81
2022/03/11 22:13:22;;;;;;;;;;;;;;;-0.50;49.63;95763.28;10533146;28;1823;-82
2022/03/11 22:18:26;;;;;;;;;;;;;;;-0.57;49.46;95775.69;10524349;28;1946;-82
2022/03/11 22:23:30;;;;;;;;;;;;;;;-0.66;50.53;95784.81;10524532;28;1785;-79
2022/03/11 22:28:34;;;;;;;;;;;;;;;-0.65;49.64;95779.31;10550851;28;1815;-82
2022/03/11 22:33:38;;;;;;;;;;;;;;;-0.70;49.31;95788.84;10532604;28;1864;-81
2022/03/11 22:38:41;;;;;;;;;;;;;;;-0.78;50.37;95779.31;10515272;28;1999;-82
2022/03/11 22:43:45;;;;;;;;;;;;;;;-0.78;49.75;95767.94;10528076;28;1829;-82
2022/03/11 22:48:51;;;;;;;;;;;;;;;-0.84;49.77;95759.81;10519321;28;1891;-82
2022/03/11 22:53:54;;;;;;;;;;;;;;;-0.90;50.48;95768.53;10537996;28;1911;-83
2022/03/11 22:59:07;;;;;;;;;;;;;;;-0.94;50.46;95771.81;10530287;28;1965;-81
2022/03/11 23:04:10;;;;;;;;;;;;;;;-1.06;51.35;95770.78;10531478;28;1833;-82
2022/03/11 23:09:30;;;;;;;;;;;;;;;-1.02;51.23;95782.53;10537415;28;1860;-82
2022/03/11 23:14:34;;;;;;;;;;;;;;;-1.08;50.53;95773.63;10515591;28;1914;-82
2022/03/11 23:19:38;;;;;;;;;;;;;;;-1.14;51.53;95775.22;10516214;28;1910;-80
2022/03/11 23:24:41;;;;;;;;;;;-0.20;99.90;;;-1.22;51.43;95778.03;10533242;28;1861;-81
2022/03/11 23:29:45;;;;;;;;;;;-0.20;99.90;;;-1.17;51.23;95777.44;10538697;28;1888;-81
2022/03/11 23:34:48;;;;;;;;;;;-0.20;91.90;;;-1.22;50.22;95788.59;10529206;28;1554;-80
2022/03/11 23:39:52;;;;;;;;;;;-0.20;91.30;;;-1.25;50.70;95789.00;10548151;28;1987;-80
2022/03/11 23:44:58;;;;;;;;;;;-0.20;91.50;;;-1.32;50.93;95785.53;10553445;28;1628;-81
2022/03/11 23:50:01;;;;;;;;;;;-0.30;94.10;;;-1.31;50.76;95795.06;10575255;28;1552;-81
2022/03/11 23:55:05;;;;;;;;;;;-0.30;93.90;;;-1.33;50.49;95797.09;10598589;28;1550;-81
